Time;durP1;ratioP1;P1;durP2;ratioP2;P2;SDS_P1;SDS_P2;PMS_P1;PMS_P2;Temp;Humidity;BMP_temperature;BMP_pressure;BME280_temperature;BME280_humidity;BME280_pressure;Samples;Min_cycle;Max_cycle;Signal;HPM_P1;HPM_P2
2023/04/27 03:58:09;;;;;;;2.30;2.20;;;6.60;99.90;;;;;;6215520;22;20207;-67
2023/04/27 04:00:36;;;;;;;2.63;2.53;;;6.50;99.90;;;;;;6216655;23;20188;-68
2023/04/27 04:03:03;;;;;;;2.28;2.17;;;6.50;99.90;;;;;;6217102;23;20184;-67
2023/04/27 04:05:30;;;;;;;2.92;2.83;;;6.50;99.90;;;;;;6216655;23;20184;-66
2023/04/27 04:07:57;;;;;;;2.17;2.08;;;6.50;99.90;;;;;;6216462;23;20193;-66
2023/04/27 04:10:24;;;;;;;3.05;2.30;;;6.50;99.90;;;;;;6216642;23;20172;-67
2023/04/27 04:12:51;;;;;;;2.53;2.42;;;6.50;99.90;;;;;;6216476;22;20208;-66
2023/04/27 04:15:20;;;;;;;2.17;1.98;;;6.40;99.90;;;;;;6216163;23;20173;-66
2023/04/27 04:17:48;;;;;;;2.33;2.22;;;6.50;99.90;;;;;;6215911;23;20249;-67
2023/04/27 04:20:15;;;;;;;1.90;1.85;;;6.50;99.90;;;;;;6215855;23;20172;-67
2023/04/27 04:22:42;;;;;;;2.00;2.00;;;6.50;99.90;;;;;;6215528;23;20247;-67
2023/04/27 04:25:08;;;;;;;2.22;2.13;;;6.50;99.90;;;;;;6215889;23;20259;-70
2023/04/27 04:27:36;;;;;;;2.72;2.58;;;6.60;99.90;;;;;;6215783;23;20177;-69
2023/04/27 04:30:05;;;;;;;2.28;2.17;;;6.60;99.90;;;;;;6215830;23;20210;-69
2023/04/27 04:32:36;;;;;;;2.47;2.38;;;6.60;99.90;;;;;;6215687;23;20200;-69
2023/04/27 04:35:04;;;;;;;3.83;2.17;;;6.60;99.90;;;;;;6215822;23;20196;-68
2023/04/27 04:37:33;;;;;;;2.33;2.22;;;6.60;99.90;;;;;;6215777;23;20173;-68
2023/04/27 04:40:00;;;;;;;2.42;2.33;;;6.60;99.90;;;;;;6216112;23;20176;-67
2023/04/27 04:42:27;;;;;;;2.63;2.42;;;6.70;99.90;;;;;;6215173;23;20526;-67
2023/04/27 04:44:54;;;;;;;2.78;2.58;;;6.70;99.90;;;;;;6215688;23;20200;-67
2023/04/27 04:47:21;;;;;;;2.53;2.40;;;6.70;99.90;;;;;;6216068;23;20176;-67
2023/04/27 04:49:49;;;;;;;2.72;2.63;;;6.70;99.90;;;;;;6215573;23;20184;-67
2023/04/27 04:52:15;;;;;;;2.42;2.33;;;6.80;99.90;;;;;;6215451;23;20223;-68
2023/04/27 04:54:42;;;;;;;2.70;2.50;;;6.80;99.90;;;;;;6215962;23;20177;-68
2023/04/27 04:57:09;;;;;;;2.67;2.58;;;6.80;99.90;;;;;;6215631;23;20173;-68
2023/04/27 04:59:36;;;;;;;3.30;3.00;;;6.90;99.90;;;;;;6215507;23;20172;-68
2023/04/27 10:03:10;;;;;;;0.70;0.70;;;16.50;49.40;;;;;;6205557;22;20415;-68
2023/04/27 10:06:05;;;;;;;0.73;0.73;;;16.60;47.60;;;;;;6217078;23;20200;-68
2023/04/27 10:08:34;;;;;;;1.13;1.08;;;16.90;46.60;;;;;;6216926;23;20498;-67
2023/04/27 10:11:01;;;;;;;2.75;1.20;;;17.00;45.30;;;;;;6217107;23;20173;-68
2023/04/27 10:13:31;;;;;;;1.02;1.02;;;17.10;43.10;;;;;;6217107;23;20283;-68
2023/04/27 10:15:58;;;;;;;0.80;0.80;;;17.10;43.40;;;;;;6218857;23;20168;-68
2023/04/27 10:18:30;;;;;;;0.60;0.60;;;17.50;44.70;;;;;;6217362;23;20502;-68
2023/04/27 10:21:10;;;;;;;0.75;0.75;;;17.80;42.70;;;;;;6216982;23;20184;-68
2023/04/27 10:23:46;;;;;;;0.70;0.70;;;17.80;40.00;;;;;;6216997;23;20196;-67
2023/04/27 10:26:13;;;;;;;1.17;0.70;;;18.00;40.30;;;;;;6216766;23;20490;-67
2023/04/27 10:28:40;;;;;;;0.98;0.90;;;18.30;40.00;;;;;;6216938;23;20179;-67
2023/04/27 10:31:10;;;;;;;0.60;0.60;;;18.40;39.00;;;;;;6216889;23;20629;-68
2023/04/27 10:33:42;;;;;;;0.90;0.90;;;18.50;39.80;;;;;;6216831;23;20196;-67
2023/04/27 10:36:15;;;;;;;1.20;0.93;;;18.50;37.70;;;;;;6217027;23;20161;-66
2023/04/27 10:38:42;;;;;;;1.63;1.00;;;18.30;38.80;;;;;;6217204;23;20157;-68
2023/04/27 10:41:14;;;;;;;0.93;0.93;;;17.60;38.90;;;;;;6217200;23;20172;-68
2023/04/27 10:43:41;;;;;;;0.80;0.80;;;17.80;42.50;;;;;;6216978;23;20201;-67
2023/04/27 10:46:09;;;;;;;1.00;0.98;;;18.10;39.80;;;;;;6217083;23;20512;-67
2023/04/27 10:48:37;;;;;;;1.25;1.15;;;18.30;39.80;;;;;;6216704;23;20176;-68
2023/04/27 10:51:04;;;;;;;0.70;0.70;;;18.10;39.70;;;;;;6216848;23;20196;-67
2023/04/27 10:53:35;;;;;;;0.93;0.80;;;18.40;41.20;;;;;;6216997;23;20203;-68
2023/04/27 10:56:05;;;;;;;0.75;0.75;;;18.70;39.60;;;;;;6216810;23;20165;-67
2023/04/27 10:58:32;;;;;;;1.02;0.60;;;18.90;37.60;;;;;;6216817;23;20183;-68
2023/04/27 11:00:59;;;;;;;1.15;0.70;;;19.10;37.30;;;;;;6216774;23;20172;-68
2023/04/27 11:03:25;;;;;;;2.67;0.93;;;19.10;36.50;;;;;;6217058;23;20189;-68
2023/04/27 11:06:00;;;;;;;0.93;0.90;;;18.70;38.10;;;;;;6216549;23;20187;-68
2023/04/27 11:08:26;;;;;;;0.70;0.70;;;18.60;37.90;;;;;;6216914;23;20164;-68
2023/04/27 11:10:54;;;;;;;0.75;0.75;;;18.80;39.30;;;;;;6216340;23;20195;-68
2023/04/27 11:13:23;;;;;;;0.70;0.70;;;18.90;36.70;;;;;;6216156;23;20569;-68
2023/04/27 11:15:53;;;;;;;0.70;0.70;;;19.00;36.90;;;;;;6216520;23;20172;-67
2023/04/27 11:18:21;;;;;;;1.13;0.68;;;18.90;36.30;;;;;;6216663;23;20218;-66
2023/04/27 11:20:49;;;;;;;0.93;0.75;;;18.40;36.00;;;;;;6216726;23;20179;-68
2023/04/27 11:23:24;;;;;;;1.10;1.00;;;18.10;39.00;;;;;;6216553;23;20203;-68
2023/04/27 11:25:51;;;;;;;4.07;1.35;;;17.60;40.20;;;;;;6216588;23;20176;-70
2023/04/27 11:28:20;;;;;;;1.25;1.15;;;17.10;40.70;;;;;;6216902;23;20176;-70
2023/04/27 11:30:48;;;;;;;1.10;1.10;;;16.90;43.10;;;;;;6216736;23;20176;-70
2023/04/27 11:33:15;;;;;;;3.80;1.50;;;16.60;43.40;;;;;;6215815;23;20646;-70
2023/04/27 11:35:42;;;;;;;1.48;1.02;;;16.20;44.10;;;;;;6216677;23;20260;-69
2023/04/27 11:38:16;;;;;;;1.13;1.10;;;15.90;45.00;;;;;;6216490;23;20172;-68
2023/04/27 11:40:43;;;;;;;1.10;0.90;;;16.00;48.50;;;;;;6216406;23;20528;-68
2023/04/27 11:43:12;;;;;;;1.55;1.00;;;16.30;49.00;;;;;;6216690;23;20265;-67
2023/04/27 11:45:43;;;;;;;1.00;1.00;;;16.60;44.50;;;;;;6216298;23;20183;-67
2023/04/27 11:48:14;;;;;;;1.05;0.93;;;16.40;46.10;;;;;;6215866;23;20493;-68
2023/04/27 11:50:41;;;;;;;0.70;0.70;;;16.70;46.60;;;;;;6216135;23;20598;-68
2023/04/27 11:53:08;;;;;;;0.88;0.85;;;16.90;43.40;;;;;;6216031;23;20207;-68
2023/04/27 11:55:36;;;;;;;0.63;0.63;;;17.20;44.90;;;;;;6216215;23;20196;-68
2023/04/27 11:58:02;;;;;;;0.60;0.60;;;17.50;43.70;;;;;;6216169;23;20176;-67
2023/04/27 12:00:29;;;;;;;0.50;0.50;;;17.70;42.00;;;;;;6215888;23;20659;-67
2023/04/27 12:02:58;;;;;;;0.50;0.50;;;17.80;41.50;;;;;;6216082;23;20193;-67
2023/04/27 12:05:25;;;;;;;1.17;1.00;;;17.90;40.00;;;;;;6216006;23;20193;-68
2023/04/27 12:07:52;;;;;;;1.13;0.90;;;17.60;40.40;;;;;;6215710;23;20640;-68
2023/04/27 12:10:19;;;;;;;3.90;1.08;;;17.30;41.30;;;;;;6216023;23;20179;-68
2023/04/27 12:12:46;;;;;;;1.02;0.90;;;16.60;44.40;;;;;;6215963;23;20200;-68
2023/04/27 12:15:12;;;;;;;1.13;0.70;;;16.40;46.10;;;;;;6216218;23;20483;-68
2023/04/27 12:17:40;;;;;;;0.80;0.80;;;16.70;47.30;;;;;;6216026;23;20172;-68
2023/04/27 12:20:10;;;;;;;0.75;0.75;;;17.10;45.90;;;;;;6216335;23;20178;-68
2023/04/27 12:22:37;;;;;;;0.88;0.88;;;17.40;43.90;;;;;;6215970;23;20203;-68
2023/04/27 12:25:04;;;;;;;0.90;0.90;;;17.60;44.70;;;;;;6216143;23;20272;-68
2023/04/27 12:27:31;;;;;;;1.10;1.05;;;17.80;43.60;;;;;;6216170;23;20173;-68
2023/04/27 12:29:59;;;;;;;1.10;1.10;;;17.70;43.70;;;;;;6216104;23;20172;-68
2023/04/27 12:32:26;;;;;;;1.02;1.02;;;17.70;44.50;;;;;;6216009;23;20196;-68
2023/04/27 12:34:53;;;;;;;1.30;1.25;;;17.80;44.80;;;;;;6216081;23;20176;-68
2023/04/27 12:37:21;;;;;;;1.38;1.27;;;17.80;44.90;;;;;;6216005;23;20195;-68
2023/04/27 12:39:48;;;;;;;1.88;1.70;;;17.70;44.30;;;;;;6215838;23;20179;-68
2023/04/27 12:42:18;;;;;;;1.73;1.63;;;17.60;44.80;;;;;;6215702;23;20195;-68
2023/04/27 12:44:45;;;;;;;1.70;1.60;;;17.70;44.90;;;;;;6216434;23;20187;-68
2023/04/27 12:47:11;;;;;;;2.90;1.33;;;17.60;44.70;;;;;;6217853;23;20180;-67
2023/04/27 12:49:39;;;;;;;1.30;1.20;;;17.60;45.20;;;;;;6217507;23;20683;-67
2023/04/27 12:52:06;;;;;;;1.13;1.02;;;17.70;46.40;;;;;;6217666;23;20172;-67
2023/04/27 12:54:35;;;;;;;1.60;1.50;;;17.70;45.60;;;;;;6217851;23;20258;-67
2023/04/27 12:57:05;;;;;;;2.85;2.10;;;17.40;45.10;;;;;;6217773;23;20176;-67
2023/04/27 12:59:31;;;;;;;1.55;1.40;;;17.30;46.50;;;;;;6217783;23;20172;-67
2023/04/27 13:01:58;;;;;;;2.70;1.92;;;17.30;46.60;;;;;;6217680;23;20176;-67
2023/04/27 13:04:25;;;;;;;1.30;1.30;;;17.00;46.50;;;;;;6217639;23;20188;-67
2023/04/27 13:06:52;;;;;;;1.60;1.50;;;16.90;47.20;;;;;;6217397;23;20259;-68
2023/04/27 13:09:18;;;;;;;1.40;1.40;;;16.80;48.30;;;;;;6218165;23;20180;-68
2023/04/27 13:11:46;;;;;;;1.58;1.40;;;16.80;47.90;;;;;;6217580;23;20634;-69
2023/04/27 13:14:13;;;;;;;2.30;1.77;;;16.80;49.40;;;;;;6218151;23;20528;-67
2023/04/27 13:16:41;;;;;;;2.75;1.63;;;16.60;47.80;;;;;;6217914;23;20176;-67
2023/04/27 13:19:08;;;;;;;1.25;1.15;;;16.50;49.30;;;;;;6217686;23;20685;-68
2023/04/27 13:21:34;;;;;;;2.63;1.60;;;16.30;49.00;;;;;;6217500;23;20518;-68
2023/04/27 13:24:01;;;;;;;2.50;1.10;;;16.10;50.40;;;;;;6217849;23;20189;-69
2023/04/27 13:26:28;;;;;;;1.30;1.20;;;16.10;49.90;;;;;;6217842;23;20185;-69
2023/04/27 13:28:56;;;;;;;1.20;1.10;;;16.20;51.80;;;;;;6217411;23;20505;-70
2023/04/27 13:31:23;;;;;;;1.33;1.23;;;16.40;51.10;;;;;;6217925;23;20179;-67
2023/04/27 13:33:50;;;;;;;1.30;1.30;;;16.50;52.60;;;;;;6217707;23;20196;-70
2023/04/27 13:36:17;;;;;;;1.10;1.10;;;16.80;50.70;;;;;;6217708;23;20173;-71
2023/04/27 13:38:43;;;;;;;1.95;1.30;;;17.00;49.00;;;;;;6217845;23;20168;-70
2023/04/27 13:41:10;;;;;;;1.40;1.30;;;17.20;48.00;;;;;;6217421;23;20179;-71
2023/04/27 13:43:37;;;;;;;1.30;1.25;;;17.40;45.60;;;;;;6217294;23;20696;-70
2023/04/27 13:46:05;;;;;;;1.70;1.60;;;17.40;45.10;;;;;;6217678;23;20179;-71
2023/04/27 13:48:32;;;;;;;1.63;1.38;;;17.20;45.90;;;;;;6217397;23;20529;-70
2023/04/27 13:50:58;;;;;;;1.20;1.20;;;17.40;46.40;;;;;;6217505;23;20180;-69
2023/04/27 13:53:26;;;;;;;1.00;1.00;;;17.60;45.20;;;;;;6217297;23;20196;-69
2023/04/27 13:55:53;;;;;;;1.10;1.00;;;17.90;45.50;;;;;;6216987;23;20227;-67
2023/04/27 17:25:35;;;;;;;0.70;0.70;;;15.50;77.50;;;;;;6214272;23;20525;-67
2023/04/27 17:28:02;;;;;;;1.55;0.75;;;15.40;80.70;;;;;;6216717;23;20192;-67
2023/04/27 17:30:29;;;;;;;0.73;0.73;;;15.20;84.80;;;;;;6216988;23;20181;-66
2023/04/27 17:32:56;;;;;;;1.08;0.90;;;15.10;91.20;;;;;;6218165;23;20184;-66
2023/04/27 17:35:26;;;;;;;0.90;0.90;;;15.00;95.60;;;;;;6189126;23;20585;-66
2023/04/27 17:37:53;;;;;;;0.80;0.80;;;14.90;97.30;;;;;;6188363;23;20173;-66
2023/04/27 17:40:21;;;;;;;0.90;0.90;;;14.80;99.90;;;;;;6188715;23;20249;-66
2023/04/27 17:42:49;;;;;;;0.88;0.88;;;14.70;99.90;;;;;;6188178;23;20177;-66
2023/04/27 17:45:16;;;;;;;0.80;0.80;;;14.50;99.90;;;;;;6188454;23;20204;-66
2023/04/27 17:47:43;;;;;;;0.70;0.70;;;14.30;99.90;;;;;;6187868;23;20627;-66
2023/04/27 17:50:11;;;;;;;0.93;0.93;;;14.10;99.90;;;;;;6192502;23;20177;-66
2023/04/27 17:52:38;;;;;;;1.20;1.20;;;13.80;99.90;;;;;;6193168;23;20256;-66
2023/04/27 17:55:06;;;;;;;1.10;1.00;;;13.60;99.90;;;;;;6193811;23;20194;-66
2023/04/27 17:57:33;;;;;;;1.20;1.10;;;13.40;99.90;;;;;;6193007;23;20177;-67
2023/04/27 18:00:02;;;;;;;1.10;1.10;;;13.20;99.90;;;;;;6194615;23;20468;-71
2023/04/27 18:02:28;;;;;;;0.95;0.90;;;13.00;99.90;;;;;;6190856;23;20213;-67
2023/04/27 18:04:56;;;;;;;1.00;1.00;;;12.90;99.90;;;;;;6187160;23;20193;-67
2023/04/27 18:07:23;;;;;;;1.13;1.13;;;12.70;99.90;;;;;;6187664;23;20157;-67
2023/04/27 18:09:50;;;;;;;0.88;0.88;;;12.50;99.90;;;;;;6188202;23;20204;-67
2023/04/27 18:12:16;;;;;;;0.85;0.85;;;12.40;99.90;;;;;;6187729;23;20184;-67
2023/04/27 18:14:43;;;;;;;1.15;1.00;;;12.20;99.90;;;;;;6187401;23;20201;-67
2023/04/27 18:17:11;;;;;;;0.90;0.90;;;12.10;99.90;;;;;;6187076;23;20631;-67
2023/04/27 18:19:38;;;;;;;1.30;1.30;;;12.00;99.90;;;;;;6187496;23;20180;-68
2023/04/27 18:22:04;;;;;;;1.55;1.45;;;11.80;99.90;;;;;;6187651;23;20180;-67
2023/04/27 18:24:31;;;;;;;1.08;1.08;;;11.70;99.90;;;;;;6187406;23;20193;-67
2023/04/27 18:26:58;;;;;;;1.42;1.33;;;11.60;99.90;;;;;;6187322;23;20186;-66
2023/04/27 18:29:25;;;;;;;1.20;1.20;;;11.60;99.90;;;;;;6186800;23;20518;-67
2023/04/27 18:31:52;;;;;;;0.90;0.90;;;11.50;99.90;;;;;;6187759;23;20185;-67
2023/04/27 18:34:20;;;;;;;0.90;0.90;;;11.40;99.90;;;;;;6186696;23;20531;-67
2023/04/27 18:36:49;;;;;;;0.98;0.98;;;11.30;99.90;;;;;;6187288;23;20173;-67
2023/04/27 18:39:16;;;;;;;0.90;0.90;;;11.30;99.90;;;;;;6187098;23;20240;-67
2023/04/27 18:41:43;;;;;;;0.90;0.90;;;11.30;99.90;;;;;;6186816;23;20181;-67
2023/04/27 18:44:09;;;;;;;1.10;1.10;;;11.20;99.90;;;;;;6187306;23;20268;-67
2023/04/27 18:46:36;;;;;;;0.80;0.80;;;11.20;99.90;;;;;;6187059;23;20209;-65
2023/04/27 18:49:03;;;;;;;0.80;0.80;;;11.10;99.90;;;;;;6187166;23;20177;-66
2023/04/27 18:51:31;;;;;;;0.95;0.95;;;11.10;99.90;;;;;;6186932;23;20188;-67
2023/04/27 18:53:57;;;;;;;1.13;0.90;;;11.00;99.90;;;;;;6186371;23;20678;-67
2023/04/27 18:56:24;;;;;;;0.80;0.80;;;10.90;99.90;;;;;;6186368;23;20639;-67
2023/04/27 18:58:52;;;;;;;0.93;0.93;;;10.90;99.90;;;;;;6186968;23;20173;-66
2023/04/27 19:01:19;;;;;;;0.93;0.93;;;10.90;99.90;;;;;;6187233;23;20177;-66
2023/04/27 19:03:46;;;;;;;1.00;1.00;;;10.80;99.90;;;;;;6186794;23;20193;-66
2023/04/27 19:06:13;;;;;;;1.00;1.00;;;10.80;99.90;;;;;;6186838;23;20184;-67
2023/04/27 19:08:41;;;;;;;1.13;1.00;;;10.70;99.90;;;;;;6186491;23;20583;-66
2023/04/27 19:11:08;;;;;;;1.00;1.00;;;10.70;99.90;;;;;;6186889;23;20165;-65
2023/04/27 19:13:35;;;;;;;1.05;1.05;;;10.70;99.90;;;;;;6186321;23;20697;-65
2023/04/27 19:16:02;;;;;;;2.97;1.45;;;10.60;99.90;;;;;;6186498;23;20496;-72
2023/04/27 19:18:29;;;;;;;1.30;1.30;;;10.60;99.90;;;;;;6186698;23;20174;-67
2023/04/27 19:20:56;;;;;;;1.20;1.20;;;10.50;99.90;;;;;;6186656;23;20180;-67
2023/04/27 19:23:23;;;;;;;3.25;1.15;;;10.40;99.90;;;;;;6186539;23;20177;-66
2023/04/27 19:25:52;;;;;;;1.02;1.02;;;10.40;99.90;;;;;;6186252;23;20181;-66
2023/04/27 19:28:19;;;;;;;1.25;1.25;;;10.30;99.90;;;;;;6186566;23;20241;-65
2023/04/27 19:30:45;;;;;;;0.98;0.98;;;10.30;99.90;;;;;;6186604;23;20173;-67
2023/04/27 19:33:12;;;;;;;2.72;0.90;;;10.20;99.90;;;;;;6186578;23;20178;-67
2023/04/27 19:35:39;;;;;;;1.67;1.15;;;10.20;99.90;;;;;;6186502;23;20239;-66
2023/04/27 19:38:06;;;;;;;1.02;1.02;;;10.10;99.90;;;;;;6186350;23;20631;-67
2023/04/27 19:40:32;;;;;;;1.20;1.20;;;10.00;99.90;;;;;;6186316;23;20634;-66
2023/04/27 19:43:00;;;;;;;1.17;1.17;;;10.00;99.90;;;;;;6186662;23;20177;-66
2023/04/27 19:45:27;;;;;;;1.13;1.13;;;10.00;99.90;;;;;;6186257;23;20699;-66
2023/04/27 19:47:54;;;;;;;1.05;1.05;;;9.90;99.90;;;;;;6186900;23;20196;-66
2023/04/27 19:50:21;;;;;;;1.20;1.20;;;9.90;99.90;;;;;;6186938;23;20192;-66
2023/04/27 19:52:47;;;;;;;1.05;1.05;;;9.90;99.90;;;;;;6186786;23;20631;-66
2023/04/27 19:55:14;;;;;;;0.93;0.93;;;9.80;99.90;;;;;;6186003;23;20197;-67
2023/04/27 19:57:41;;;;;;;1.40;1.30;;;9.80;99.90;;;;;;6186181;23;20583;-66
2023/04/27 20:00:11;;;;;;;1.00;1.00;;;9.70;99.90;;;;;;6186175;23;20184;-64
2023/04/27 20:02:38;;;;;;;1.20;1.20;;;9.70;99.90;;;;;;6186336;23;20177;-65
2023/04/27 20:05:06;;;;;;;1.00;1.00;;;9.60;99.90;;;;;;6185863;23;20193;-65
2023/04/27 20:07:32;;;;;;;1.17;1.17;;;9.60;99.90;;;;;;6186041;23;20256;-66
2023/04/27 20:09:59;;;;;;;1.20;1.20;;;9.60;99.90;;;;;;6186000;23;20177;-66
2023/04/27 20:12:26;;;;;;;1.10;1.10;;;9.60;99.90;;;;;;6186031;23;20213;-66
2023/04/27 20:14:52;;;;;;;1.20;1.10;;;9.60;99.90;;;;;;6185795;23;20201;-66
2023/04/27 20:17:20;;;;;;;1.30;1.30;;;9.50;99.90;;;;;;6186289;23;20177;-66
2023/04/27 20:19:48;;;;;;;2.50;1.20;;;9.50;99.90;;;;;;6185921;23;20546;-66
2023/04/27 20:22:15;;;;;;;1.10;1.10;;;9.50;99.90;;;;;;6186031;23;20173;-66
2023/04/27 20:24:42;;;;;;;1.40;1.40;;;9.50;99.90;;;;;;6186145;23;20662;-66
2023/04/27 20:27:09;;;;;;;1.35;1.33;;;9.50;99.90;;;;;;6185895;23;20186;-66
2023/04/27 20:29:36;;;;;;;1.48;1.48;;;9.50;99.90;;;;;;6185946;23;20186;-66
2023/04/27 20:32:02;;;;;;;1.33;1.33;;;9.40;99.90;;;;;;6185895;23;20512;-66
2023/04/27 20:34:31;;;;;;;1.25;1.25;;;9.40;99.90;;;;;;6185769;23;20531;-66
2023/04/27 20:36:57;;;;;;;1.85;1.70;;;9.40;99.90;;;;;;6186164;23;20183;-66
2023/04/27 20:39:24;;;;;;;1.33;1.33;;;9.40;99.90;;;;;;6185832;23;20196;-66
2023/04/27 20:41:51;;;;;;;1.20;1.20;;;9.40;99.90;;;;;;6185404;23;20188;-66
2023/04/27 20:44:19;;;;;;;1.30;1.30;;;9.40;99.90;;;;;;6185824;23;20571;-66
2023/04/27 20:46:46;;;;;;;1.50;1.40;;;9.30;99.90;;;;;;6185937;23;20256;-66
2023/04/27 20:49:12;;;;;;;1.30;1.30;;;9.30;99.90;;;;;;6185814;23;20177;-66
2023/04/27 20:51:40;;;;;;;1.25;1.25;;;9.20;99.90;;;;;;6185803;23;20532;-66
2023/04/27 20:54:07;;;;;;;1.30;1.30;;;9.20;99.90;;;;;;6185557;23;20193;-66
2023/04/27 20:56:34;;;;;;;1.40;1.30;;;9.20;99.90;;;;;;6185724;23;20177;-66
2023/04/27 20:59:01;;;;;;;1.45;1.27;;;9.20;99.90;;;;;;6185385;23;20181;-66
2023/04/27 21:01:27;;;;;;;1.42;1.42;;;9.10;99.90;;;;;;6185919;23;20180;-65
2023/04/27 21:03:54;;;;;;;1.30;1.30;;;9.10;99.90;;;;;;6185781;23;20205;-66
2023/04/27 21:06:21;;;;;;;1.25;1.25;;;9.10;99.90;;;;;;6186834;23;20453;-66
2023/04/27 21:08:49;;;;;;;1.48;1.48;;;9.00;99.90;;;;;;6187680;23;20174;-66
2023/04/27 21:11:16;;;;;;;1.15;1.15;;;9.00;99.90;;;;;;6187303;23;20639;-66
2023/04/27 21:13:43;;;;;;;1.20;1.20;;;9.00;99.90;;;;;;6187751;23;20244;-66
2023/04/27 21:16:09;;;;;;;1.20;1.20;;;9.00;99.90;;;;;;6187659;23;20197;-65
2023/04/27 21:18:36;;;;;;;1.20;1.20;;;8.90;99.90;;;;;;6187483;23;20693;-66
2023/04/27 21:21:03;;;;;;;1.10;1.10;;;8.90;99.90;;;;;;6187637;23;20181;-66
2023/04/27 21:23:30;;;;;;;1.35;1.35;;;8.80;99.90;;;;;;6187673;23;20193;-66
2023/04/27 21:25:58;;;;;;;1.50;1.50;;;8.80;99.90;;;;;;6187262;23;20173;-66
2023/04/27 21:28:25;;;;;;;1.30;1.20;;;8.80;99.90;;;;;;6187055;23;20625;-66
2023/04/27 21:30:52;;;;;;;1.40;1.40;;;8.80;99.90;;;;;;6187342;23;20224;-66
2023/04/27 21:33:18;;;;;;;1.45;1.45;;;8.80;99.90;;;;;;6186830;23;20539;-66
2023/04/27 21:35:45;;;;;;;1.40;1.40;;;8.80;99.90;;;;;;6187259;23;20197;-66
2023/04/27 21:38:12;;;;;;;1.40;1.35;;;8.80;99.90;;;;;;6187205;23;20178;-66
2023/04/27 21:40:38;;;;;;;1.30;1.30;;;8.80;99.90;;;;;;6187180;23;20232;-66
2023/04/27 21:43:07;;;;;;;1.30;1.30;;;8.80;99.90;;;;;;6186845;23;20639;-66
2023/04/27 21:45:34;;;;;;;1.83;1.73;;;8.80;99.90;;;;;;6187218;23;20583;-66
2023/04/27 21:48:01;;;;;;;1.52;1.50;;;8.70;99.90;;;;;;6187250;23;20212;-66
2023/04/27 21:50:28;;;;;;;1.77;1.77;;;8.70;99.90;;;;;;6186773;23;20184;-66
2023/04/27 21:52:54;;;;;;;1.40;1.40;;;8.80;99.90;;;;;;6187136;23;20174;-67
2023/04/27 21:55:21;;;;;;;1.42;1.42;;;8.80;99.90;;;;;;6186844;23;20204;-67
